Time;durP1;ratioP1;P1;durP2;ratioP2;P2;SDS_P1;SDS_P2;PMS_P1;PMS_P2;Temp;Humidity;BMP_temperature;BMP_pressure;BME280_temperature;BME280_humidity;BME280_pressure;Samples;Min_cycle;Max_cycle;Signal;HPM_P1;HPM_P2
2022/11/23 00:01:20;;;;;;;8.80;2.08;;;13.70;96.70;;;;;;5096183;28;20032;-78
2022/11/23 00:03:48;;;;;;;6.28;2.13;;;13.70;96.70;;;;;;5095794;28;20035;-70
2022/11/23 00:06:15;;;;;;;7.32;2.63;;;13.60;96.90;;;;;;5095979;28;20020;-73
2022/11/23 00:08:40;;;;;;;6.05;2.35;;;13.60;96.90;;;;;;5095945;28;20016;-74
2022/11/23 00:11:06;;;;;;;9.15;2.97;;;13.60;96.90;;;;;;5095367;28;20078;-70
2022/11/23 00:13:34;;;;;;;5.75;2.53;;;13.70;96.80;;;;;;5095119;28;20042;-68
2022/11/23 00:16:00;;;;;;;8.68;2.70;;;13.60;96.90;;;;;;5095162;28;20016;-71
2022/11/23 00:18:26;;;;;;;6.05;2.58;;;13.60;96.90;;;;;;5095185;28;20074;-68
2022/11/23 00:20:51;;;;;;;5.95;2.58;;;13.60;96.90;;;;;;5095174;28;20492;-69
2022/11/23 00:23:17;;;;;;;8.77;3.30;;;13.60;96.90;;;;;;5095291;28;20476;-70
2022/11/23 00:25:45;;;;;;;11.15;3.17;;;13.60;97.10;;;;;;5095467;28;20020;-78
2022/11/23 00:28:11;;;;;;;7.82;2.95;;;13.60;97.10;;;;;;5095666;28;20040;-78
2022/11/23 00:30:37;;;;;;;7.95;3.67;;;13.50;97.10;;;;;;5094757;28;20069;-68
2022/11/23 00:33:02;;;;;;;8.35;3.38;;;13.60;97.20;;;;;;5094955;28;20465;-70
2022/11/23 00:35:28;;;;;;;7.00;2.92;;;13.50;97.20;;;;;;5094603;28;20024;-79
2022/11/23 00:37:53;;;;;;;10.85;2.97;;;13.60;97.10;;;;;;5095186;28;20020;-69
2022/11/23 00:40:19;;;;;;;8.98;3.03;;;13.60;97.10;;;;;;5094470;28;20032;-71
2022/11/23 00:42:44;;;;;;;7.85;3.30;;;13.60;97.10;;;;;;5094833;28;20538;-68
2022/11/23 00:45:10;;;;;;;9.65;2.63;;;13.60;97.10;;;;;;5094671;28;20030;-69
2022/11/23 00:47:35;;;;;;;9.15;3.25;;;13.60;97.10;;;;;;5094449;28;20412;-73
2022/11/23 00:50:01;;;;;;;8.82;2.72;;;13.50;97.10;;;;;;5094534;28;20028;-68
2022/11/23 00:52:27;;;;;;;8.32;3.15;;;13.60;97.10;;;;;;5094575;28;20024;-68
2022/11/23 00:54:52;;;;;;;9.23;2.42;;;13.60;97.10;;;;;;5094499;28;20492;-68
2022/11/23 00:57:18;;;;;;;8.98;2.38;;;13.60;97.30;;;;;;5094463;28;20024;-68
2022/11/23 00:59:43;;;;;;;8.32;2.45;;;13.70;97.10;;;;;;5094300;28;20043;-69
2022/11/23 01:02:09;;;;;;;11.35;2.75;;;13.70;97.10;;;;;;5062409;28;20028;-71
2022/11/23 01:04:34;;;;;;;7.38;2.50;;;13.60;97.10;;;;;;5053483;28;20029;-68
2022/11/23 01:07:00;;;;;;;7.13;2.33;;;13.70;97.00;;;;;;5051800;28;20021;-68
2022/11/23 01:09:26;;;;;;;9.60;2.60;;;13.70;97.00;;;;;;5053991;28;20045;-69
2022/11/23 01:11:52;;;;;;;11.10;2.30;;;13.60;97.00;;;;;;5053467;28;20519;-69
2022/11/23 01:14:19;;;;;;;5.53;1.70;;;13.60;97.10;;;;;;5053781;28;20104;-69
2022/11/23 01:16:45;;;;;;;6.22;2.08;;;13.60;97.10;;;;;;5054215;28;20469;-68
2022/11/23 01:19:16;;;;;;;11.20;2.72;;;13.50;97.20;;;;;;5053187;28;20067;-70
2022/11/23 01:21:42;;;;;;;9.35;2.28;;;13.60;97.10;;;;;;5053951;28;20108;-68
2022/11/23 01:24:11;;;;;;;8.23;2.22;;;13.60;97.20;;;;;;5053248;28;20146;-68
2022/11/23 01:26:36;;;;;;;12.38;2.45;;;13.50;97.10;;;;;;5053476;28;20110;-71
2022/11/23 01:29:02;;;;;;;5.70;2.30;;;13.60;97.20;;;;;;5053767;28;20521;-67
2022/11/23 01:31:28;;;;;;;14.38;2.90;;;13.50;97.10;;;;;;5053355;28;20090;-68
2022/11/23 01:33:58;;;;;;;7.10;2.30;;;13.60;97.10;;;;;;5053214;28;20133;-68
2022/11/23 01:36:29;;;;;;;11.13;2.65;;;13.60;97.10;;;;;;5053468;28;20064;-68
2022/11/23 01:38:56;;;;;;;12.75;3.05;;;13.60;97.10;;;;;;5053435;28;20082;-68
2022/11/23 01:41:28;;;;;;;9.57;2.88;;;13.50;97.10;;;;;;5052146;28;20043;-68
2022/11/23 01:43:53;;;;;;;;;;;13.50;97.00;;;;;;5053903;28;20070;-68
2022/11/23 01:46:20;;;;;;;10.27;2.72;;;13.60;97.00;;;;;;5053147;28;19904;-68
2022/11/23 01:49:06;;;;;;;9.40;2.50;;;13.50;96.90;;;;;;5053270;28;20254;-79
2022/11/23 01:51:38;;;;;;;11.90;2.90;;;13.60;96.90;;;;;;5053167;28;20021;-80
2022/11/23 01:54:16;;;;;;;12.52;2.67;;;13.50;96.90;;;;;;5053392;28;20032;-72
2022/11/23 01:56:47;;;;;;;11.65;2.83;;;13.50;97.00;;;;;;5053198;28;20028;-73
2022/11/23 01:59:17;;;;;;;10.90;2.53;;;13.40;96.90;;;;;;5053040;28;20017;-78
2022/11/23 02:01:43;;;;;;;8.00;2.50;;;13.50;96.80;;;;;;5051607;28;20367;-76
2022/11/23 02:04:13;;;;;;;8.82;2.58;;;13.50;96.70;;;;;;5052981;28;20099;-79
2022/11/23 02:06:39;;;;;;;10.05;2.58;;;13.50;96.70;;;;;;5052883;28;20020;-75
2022/11/23 02:09:06;;;;;;;11.73;2.67;;;13.50;96.60;;;;;;5053146;28;20028;-75
2022/11/23 02:11:32;;;;;;;10.98;2.88;;;13.50;96.50;;;;;;5052813;28;20044;-70
2022/11/23 02:13:59;;;;;;;8.20;2.80;;;13.50;96.60;;;;;;5053011;28;20025;-74
2022/11/23 02:16:24;;;;;;;8.50;2.45;;;13.50;96.50;;;;;;5052610;28;20014;-79
2022/11/23 02:18:52;;;;;;;10.52;2.15;;;13.50;96.50;;;;;;5052538;28;20041;-74
2022/11/23 02:21:17;;;;;;;9.52;2.50;;;13.50;96.50;;;;;;5052602;28;20055;-73
2022/11/23 02:23:58;;;;;;;9.32;2.33;;;13.40;96.50;;;;;;5052826;28;20021;-69
2022/11/23 02:26:28;;;;;;;10.32;2.85;;;13.50;96.80;;;;;;5052777;28;20390;-78
2022/11/23 02:28:59;;;;;;;10.63;2.33;;;13.50;96.30;;;;;;5052883;28;20017;-70
2022/11/23 02:31:25;;;;;;;9.82;2.20;;;13.50;96.40;;;;;;5052510;28;20032;-73
2022/11/23 02:33:50;;;;;;;9.73;2.45;;;13.50;96.10;;;;;;5052591;28;20025;-73
2022/11/23 02:36:41;;;;;;;18.13;2.92;;;13.50;96.10;;;;;;5053314;28;20013;-75
2022/11/23 02:39:11;;;;;;;8.55;2.10;;;13.40;96.10;;;;;;5055558;28;20029;-73
2022/11/23 02:41:39;;;;;;;11.68;2.83;;;13.50;96.00;;;;;;5056931;28;20025;-71
2022/11/23 02:44:14;;;;;;;11.98;2.75;;;13.50;96.10;;;;;;5056827;28;20026;-72
2022/11/23 02:46:39;;;;;;;7.32;2.33;;;13.50;96.00;;;;;;5056773;28;20509;-72
2022/11/23 02:49:05;;;;;;;10.82;3.10;;;13.40;96.00;;;;;;5056512;28;20061;-68
2022/11/23 02:51:30;;;;;;;11.70;2.08;;;13.40;96.00;;;;;;5056337;28;20502;-77
2022/11/23 02:53:56;;;;;;;11.98;2.28;;;13.40;95.90;;;;;;5056564;28;20033;-70
2022/11/23 02:56:21;;;;;;;11.32;2.15;;;13.40;96.00;;;;;;5055541;28;20025;-76
2022/11/23 02:58:47;;;;;;;10.73;2.58;;;13.40;95.90;;;;;;5056089;28;20122;-77
2022/11/23 03:01:12;;;;;;;9.27;2.10;;;13.40;95.90;;;;;;5056311;28;20025;-69
2022/11/23 03:03:38;;;;;;;13.75;2.58;;;13.40;95.80;;;;;;5056068;28;20025;-77
2022/11/23 03:06:04;;;;;;;8.65;2.17;;;13.40;95.70;;;;;;5056432;28;20021;-69
2022/11/23 03:08:29;;;;;;;8.70;2.40;;;13.40;95.80;;;;;;5056288;28;20409;-69
2022/11/23 03:10:55;;;;;;;12.13;2.70;;;13.40;95.70;;;;;;5056212;28;20033;-71
2022/11/23 03:13:20;;;;;;;9.93;2.25;;;13.40;95.60;;;;;;5055622;28;20017;-74
2022/11/23 03:15:46;;;;;;;7.80;1.77;;;13.50;95.60;;;;;;5056257;28;20055;-68
2022/11/23 03:18:11;;;;;;;11.23;1.98;;;13.40;95.50;;;;;;5056028;28;20439;-71
2022/11/23 03:20:37;;;;;;;15.10;2.63;;;13.40;95.40;;;;;;5055611;28;20561;-69
2022/11/23 03:23:02;;;;;;;11.68;2.58;;;13.30;95.30;;;;;;5055969;28;20039;-77
2022/11/23 03:25:28;;;;;;;10.02;2.05;;;13.30;95.20;;;;;;5055879;28;20051;-70
2022/11/23 03:27:53;;;;;;;15.50;2.67;;;13.20;95.30;;;;;;5055630;28;20105;-74
2022/11/23 03:30:22;;;;;;;12.50;2.25;;;13.20;95.30;;;;;;5055758;28;20364;-78
2022/11/23 03:32:48;;;;;;;13.85;2.53;;;13.20;95.30;;;;;;5054610;28;20021;-71
2022/11/23 03:35:13;;;;;;;15.27;2.38;;;13.20;95.30;;;;;;5055806;28;20074;-71
2022/11/23 03:37:39;;;;;;;9.20;2.15;;;13.20;95.30;;;;;;5055680;28;20428;-80
2022/11/23 03:40:05;;;;;;;13.88;2.53;;;13.20;95.30;;;;;;5055563;28;20041;-71
2022/11/23 03:42:30;;;;;;;13.20;2.88;;;13.20;95.30;;;;;;5055214;28;20025;-77
2022/11/23 03:44:56;;;;;;;9.32;1.85;;;13.20;95.40;;;;;;5055467;28;20039;-82
2022/11/23 03:47:21;;;;;;;13.38;2.53;;;13.10;95.40;;;;;;5054750;28;20017;-76
2022/11/23 03:49:47;;;;;;;11.63;2.65;;;13.10;95.40;;;;;;5055321;28;20396;-80
2022/11/23 03:52:13;;;;;;;17.35;2.95;;;13.10;95.30;;;;;;5055691;28;20025;-70
2022/11/23 03:54:38;;;;;;;11.75;2.30;;;13.20;95.20;;;;;;5055398;28;20467;-79
2022/11/23 03:57:04;;;;;;;9.32;2.22;;;13.10;95.40;;;;;;5054942;28;20021;-83
2022/11/23 03:59:29;;;;;;;13.82;2.67;;;13.10;95.30;;;;;;5055113;28;20060;-70
2022/11/23 04:01:55;;;;;;;12.60;2.60;;;13.10;95.20;;;;;;5055471;28;20061;-78
2022/11/23 04:04:20;;;;;;;15.85;2.65;;;13.10;95.20;;;;;;5055172;28;20060;-72
2022/11/23 04:06:46;;;;;;;15.50;2.47;;;13.10;95.20;;;;;;5055258;28;20120;-79
2022/11/23 04:09:12;;;;;;;11.63;2.72;;;13.10;95.20;;;;;;5055050;28;20100;-72
2022/11/23 04:11:37;;;;;;;13.57;1.92;;;13.10;95.10;;;;;;5054826;28;20029;-78
2022/11/23 04:14:03;;;;;;;14.13;2.50;;;13.10;95.00;;;;;;5054959;28;20017;-69
2022/11/23 04:16:28;;;;;;;13.85;2.17;;;13.20;94.90;;;;;;5053776;28;20120;-79
2022/11/23 04:18:54;;;;;;;12.23;2.45;;;13.10;94.80;;;;;;5054942;28;20486;-72
2022/11/23 04:21:19;;;;;;;11.23;2.17;;;13.10;94.90;;;;;;5054621;28;20050;-69
2022/11/23 04:23:45;;;;;;;13.93;2.78;;;13.10;94.70;;;;;;5054963;28;20032;-79
2022/11/23 04:26:11;;;;;;;11.77;1.95;;;13.10;94.60;;;;;;5054547;28;20481;-70
2022/11/23 04:28:36;;;;;;;14.85;3.33;;;13.10;94.60;;;;;;5054552;28;20031;-72
2022/11/23 04:31:02;;;;;;;13.23;2.78;;;13.10;94.60;;;;;;5054734;28;20031;-70
2022/11/23 04:33:27;;;;;;;15.52;3.47;;;13.10;94.60;;;;;;5054552;28;20120;-72
2022/11/23 04:35:53;;;;;;;11.73;2.38;;;13.10;94.80;;;;;;5054702;28;20109;-69
2022/11/23 04:38:18;;;;;;;15.13;2.80;;;13.10;94.90;;;;;;5054626;28;20467;-69
2022/11/23 04:40:46;;;;;;;21.92;3.10;;;13.10;95.10;;;;;;5052763;28;20055;-69
2022/11/23 04:43:11;;;;;;;13.48;2.45;;;13.00;95.20;;;;;;5054543;28;20028;-69
2022/11/23 04:45:38;;;;;;;12.82;3.28;;;13.00;95.40;;;;;;5054026;28;20028;-74
2022/11/23 04:48:04;;;;;;;10.93;2.38;;;13.00;95.60;;;;;;5054679;28;20020;-69
2022/11/23 04:50:30;;;;;;;10.15;2.40;;;13.00;95.70;;;;;;5054119;28;20040;-81
2022/11/23 04:52:55;;;;;;;11.52;2.50;;;13.00;95.80;;;;;;5054742;28;20031;-74
2022/11/23 04:55:21;;;;;;;12.70;3.13;;;12.90;95.90;;;;;;5054106;28;20025;-69
2022/11/23 04:57:46;;;;;;;10.07;2.45;;;12.90;95.90;;;;;;5054670;28;20421;-70
2022/11/23 05:00:13;;;;;;;16.60;3.47;;;12.90;96.00;;;;;;5053823;28;20029;-69
2022/11/23 05:02:38;;;;;;;12.75;2.60;;;12.90;96.00;;;;;;5057026;28;20036;-74
2022/11/23 05:05:04;;;;;;;13.13;2.97;;;12.90;96.20;;;;;;5054620;28;20020;-79
2022/11/23 05:07:30;;;;;;;14.00;2.83;;;12.80;96.40;;;;;;5054164;28;20029;-80
2022/11/23 05:09:55;;;;;;;9.98;2.17;;;12.80;96.50;;;;;;5053346;28;20021;-79
2022/11/23 05:12:21;;;;;;;11.85;2.58;;;12.70;96.60;;;;;;5063666;28;20029;-79
2022/11/23 05:14:47;;;;;;;15.70;2.70;;;12.70;96.80;;;;;;5073745;28;20028;-76
2022/11/23 05:17:12;;;;;;;15.85;3.20;;;12.70;96.90;;;;;;5057341;28;20021;-79
2022/11/23 05:19:38;;;;;;;14.45;2.78;;;12.70;97.00;;;;;;5053415;28;20049;-77
2022/11/23 05:22:03;;;;;;;13.57;3.50;;;12.60;96.90;;;;;;5053560;28;20013;-78
2022/11/23 05:24:29;;;;;;;14.43;2.53;;;12.70;96.70;;;;;;5061066;28;20078;-80
2022/11/23 05:26:54;;;;;;;15.13;2.47;;;12.70;96.70;;;;;;5058656;28;20021;-80
2022/11/23 05:29:20;;;;;;;14.70;3.08;;;12.70;96.80;;;;;;5055752;28;20052;-84
2022/11/23 05:31:45;;;;;;;11.60;2.67;;;12.70;96.50;;;;;;5073404;28;20067;-73
2022/11/23 05:34:11;;;;;;;12.13;2.75;;;12.80;96.40;;;;;;5073445;28;20427;-81
2022/11/23 05:36:36;;;;;;;10.38;2.20;;;12.80;96.30;;;;;;5073342;28;20497;-81
2022/11/23 05:39:02;;;;;;;17.60;2.92;;;12.80;96.20;;;;;;5073110;28;20085;-83
2022/11/23 05:41:28;;;;;;;17.92;3.50;;;12.80;96.20;;;;;;5071245;28;20086;-82
2022/11/23 05:43:53;;;;;;;15.27;2.90;;;12.80;96.30;;;;;;5063287;28;20017;-80
2022/11/23 05:46:19;;;;;;;16.85;2.70;;;12.80;96.10;;;;;;5073215;28;20103;-78
2022/11/23 05:48:44;;;;;;;11.02;3.10;;;12.80;96.10;;;;;;5077125;28;20055;-79
2022/11/23 05:51:10;;;;;;;13.10;2.55;;;12.80;96.10;;;;;;5092833;28;20445;-75
2022/11/23 05:53:36;;;;;;;11.20;2.90;;;12.70;96.10;;;;;;5091972;28;20393;-82
2022/11/23 05:56:01;;;;;;;15.98;3.05;;;12.70;96.10;;;;;;5093211;28;20024;-77
2022/11/23 05:58:28;;;;;;;12.48;2.58;;;12.70;96.20;;;;;;5093747;28;20013;-77
2022/11/23 06:01:00;;;;;;;17.02;2.97;;;12.80;96.10;;;;;;5082508;28;20120;-76
2022/11/23 06:03:25;;;;;;;14.43;3.40;;;12.70;96.00;;;;;;5059597;28;20013;-79
2022/11/23 06:05:51;;;;;;;17.65;2.60;;;12.70;95.90;;;;;;5052351;28;20031;-73
2022/11/23 06:08:16;;;;;;;12.40;2.92;;;12.70;96.10;;;;;;5050483;28;20025;-73
2022/11/23 06:10:42;;;;;;;15.45;3.45;;;12.70;95.80;;;;;;5052465;28;20056;-81
2022/11/23 06:13:08;;;;;;;12.38;2.50;;;12.70;95.60;;;;;;5053179;28;20024;-83
2022/11/23 06:15:33;;;;;;;11.18;2.72;;;12.70;95.40;;;;;;5052502;28;20478;-75
2022/11/23 06:18:00;;;;;;;10.07;2.78;;;12.70;95.30;;;;;;5052745;28;20101;-74
2022/11/23 06:20:27;;;;;;;13.93;2.50;;;12.80;95.40;;;;;;5052096;28;20052;-73
2022/11/23 06:22:54;;;;;;;13.35;2.70;;;12.90;95.30;;;;;;5069481;28;20138;-77
2022/11/23 06:25:20;;;;;;;13.93;3.15;;;12.90;95.10;;;;;;5056943;28;20029;-82
2022/11/23 06:27:53;;;;;;;11.98;2.75;;;12.90;95.20;;;;;;5060269;28;20017;-73
2022/11/23 06:30:19;;;;;;;12.13;2.97;;;12.80;95.00;;;;;;5065269;28;20093;-78
2022/11/23 06:32:45;;;;;;;12.05;2.88;;;12.70;94.90;;;;;;5059732;28;20024;-74
2022/11/23 06:35:10;;;;;;;16.65;3.25;;;12.70;94.80;;;;;;5056710;28;20378;-75
2022/11/23 06:37:36;;;;;;;16.95;3.03;;;12.70;94.80;;;;;;5068952;28;20555;-76
2022/11/23 06:40:02;;;;;;;9.73;2.92;;;12.60;94.90;;;;;;5067219;28;20041;-70
2022/11/23 06:42:27;;;;;;;14.32;3.00;;;12.60;94.90;;;;;;5068317;28;20032;-76
2022/11/23 06:44:53;;;;;;;12.93;3.17;;;12.50;94.80;;;;;;5057422;28;20037;-81
2022/11/23 06:47:18;;;;;;;16.50;2.95;;;12.50;94.90;;;;;;5060610;28;20025;-82
2022/11/23 06:49:44;;;;;;;14.52;2.92;;;12.60;95.10;;;;;;5054948;28;20029;-82
2022/11/23 06:52:09;;;;;;;13.68;2.92;;;12.80;96.20;;;;;;5055689;28;20016;-69
2022/11/23 06:54:35;;;;;;;13.05;2.35;;;13.00;96.10;;;;;;5060267;28;20359;-73
2022/11/23 06:57:01;;;;;;;14.55;3.50;;;13.10;96.10;;;;;;5064527;28;20048;-73
2022/11/23 06:59:26;;;;;;;19.08;3.55;;;13.10;95.50;;;;;;5062103;28;20493;-73
2022/11/23 07:01:52;;;;;;;17.05;3.42;;;13.10;95.20;;;;;;5070150;28;20062;-73
2022/11/23 07:04:17;;;;;;;12.98;2.88;;;12.80;94.60;;;;;;5056758;28;21148;-72
2022/11/23 07:06:43;;;;;;;16.05;3.45;;;12.90;94.60;;;;;;5056464;28;20362;-72
2022/11/23 07:09:09;;;;;;;13.15;2.97;;;13.00;94.20;;;;;;5072187;28;20369;-72
2022/11/23 07:11:35;;;;;;;12.80;3.05;;;12.90;94.30;;;;;;5066872;28;20044;-72
2022/11/23 07:14:00;;;;;;;14.82;3.75;;;12.80;94.30;;;;;;5062684;28;20482;-73
2022/11/23 07:16:26;;;;;;;18.13;3.85;;;12.80;94.40;;;;;;5069192;28;20020;-78
2022/11/23 07:18:51;;;;;;;15.18;3.13;;;12.70;94.20;;;;;;5070372;28;20047;-72
2022/11/23 07:21:17;;;;;;;11.10;2.80;;;12.70;94.30;;;;;;5059977;28;20033;-72
2022/11/23 07:23:42;;;;;;;16.67;3.28;;;12.60;94.20;;;;;;5065133;28;20052;-74
2022/11/23 07:26:08;;;;;;;12.88;3.03;;;12.50;94.70;;;;;;5068178;28;20028;-72
2022/11/23 07:28:34;;;;;;;14.43;3.45;;;12.50;94.30;;;;;;5062695;28;20086;-75
2022/11/23 07:30:59;;;;;;;11.73;3.03;;;12.50;94.30;;;;;;5056662;28;20060;-73
2022/11/23 07:33:25;;;;;;;15.50;3.30;;;12.40;94.30;;;;;;5056424;28;20078;-73
2022/11/23 07:35:50;;;;;;;16.85;4.53;;;12.70;95.20;;;;;;5061791;28;20063;-72
2022/11/23 07:38:16;;;;;;;12.93;3.75;;;12.80;94.60;;;;;;5076310;28;20033;-72
2022/11/23 07:40:41;;;;;;;13.00;5.45;;;13.00;94.80;;;;;;5061499;28;20033;-73
2022/11/23 07:43:08;;;;;;;19.23;5.05;;;13.00;94.20;;;;;;5066489;28;20029;-72
2022/11/23 07:45:35;;;;;;;19.48;4.47;;;13.00;94.30;;;;;;5056623;28;20083;-74
2022/11/23 07:48:04;;;;;;;21.40;3.78;;;13.00;94.60;;;;;;5064760;28;20020;-72
2022/11/23 07:50:30;;;;;;;16.70;3.72;;;13.00;94.80;;;;;;5066388;28;20027;-73
2022/11/23 07:52:56;;;;;;;11.65;3.53;;;13.10;94.50;;;;;;5064917;28;20367;-72
2022/11/23 07:55:22;;;;;;;15.38;4.00;;;13.00;94.30;;;;;;5055854;28;20485;-73
2022/11/23 07:57:54;;;;;;;24.08;4.45;;;13.00;94.90;;;;;;5060356;28;20129;-78
2022/11/23 08:00:21;;;;;;;16.27;5.15;;;13.00;94.30;;;;;;5055224;28;20033;-75
2022/11/23 08:02:47;;;;;;;14.05;5.22;;;13.00;94.30;;;;;;5056302;28;20033;-72
2022/11/23 08:05:13;;;;;;;22.38;8.02;;;13.10;94.40;;;;;;5062857;28;20059;-72
2022/11/23 08:07:39;;;;;;;19.70;5.30;;;12.90;94.30;;;;;;5074947;28;20021;-72
2022/11/23 08:10:05;;;;;;;17.13;4.78;;;12.90;94.70;;;;;;5073305;28;20079;-72
2022/11/23 08:12:31;;;;;;;16.30;4.53;;;13.00;94.90;;;;;;5073955;28;20105;-72
2022/11/23 08:14:56;;;;;;;14.98;4.35;;;13.00;95.40;;;;;;5068623;28;20036;-72
2022/11/23 08:17:22;;;;;;;9.82;3.80;;;13.00;95.10;;;;;;5073971;28;20373;-72
2022/11/23 08:19:47;;;;;;;14.35;4.55;;;13.20;95.50;;;;;;5074021;28;20036;-73
2022/11/23 08:22:13;;;;;;;10.88;3.70;;;13.30;95.10;;;;;;5075229;28;20158;-76
2022/11/23 08:24:38;;;;;;;12.90;3.50;;;13.20;95.20;;;;;;5059593;28;20025;-77
2022/11/23 08:27:04;;;;;;;12.82;3.50;;;13.40;95.60;;;;;;5072123;28;20021;-78
2022/11/23 08:29:29;;;;;;;15.35;3.28;;;13.50;94.80;;;;;;5064089;28;20377;-80
2022/11/23 08:31:55;;;;;;;15.25;3.42;;;13.40;93.90;;;;;;5066407;28;20111;-80
2022/11/23 08:34:21;;;;;;;17.67;4.90;;;13.40;93.70;;;;;;5062517;28;20028;-82
2022/11/23 08:36:49;;;;;;;14.00;4.47;;;13.40;93.60;;;;;;5059743;28;20037;-78
2022/11/23 08:39:16;;;;;;;16.95;5.82;;;13.50;93.30;;;;;;5067667;28;20028;-76
2022/11/23 08:41:41;;;;;;;15.60;3.60;;;13.50;93.40;;;;;;5056261;28;20029;-77
2022/11/23 08:44:09;;;;;;;10.15;2.92;;;13.40;93.40;;;;;;5054473;28;20367;-75
2022/11/23 08:46:35;;;;;;;13.05;3.22;;;13.40;93.40;;;;;;5053542;28;20049;-81
2022/11/23 08:49:01;;;;;;;12.00;3.42;;;13.30;93.60;;;;;;5065792;28;20517;-76
2022/11/23 08:51:26;;;;;;;12.45;3.17;;;13.60;93.90;;;;;;5053833;28;20036;-76
2022/11/23 08:53:52;;;;;;;14.68;3.25;;;13.50;93.40;;;;;;5054040;28;20032;-75
2022/11/23 08:56:17;;;;;;;14.25;3.08;;;13.60;93.50;;;;;;5057753;28;20031;-76
2022/11/23 08:58:43;;;;;;;9.30;2.92;;;13.70;93.50;;;;;;5065356;28;20104;-76
2022/11/23 09:01:11;;;;;;;13.68;3.55;;;14.00;93.20;;;;;;5063882;28;20123;-78
2022/11/23 09:03:37;;;;;;;11.82;2.97;;;14.00;93.10;;;;;;5070006;28;20218;-75
2022/11/23 09:06:02;;;;;;;8.15;2.78;;;14.00;93.00;;;;;;5062863;28;20048;-77
2022/11/23 09:08:28;;;;;;;16.17;3.55;;;13.80;93.00;;;;;;5065861;28;20096;-73
2022/11/23 09:10:57;;;;;;;13.32;3.25;;;13.70;93.40;;;;;;5058376;28;20028;-76
2022/11/23 09:13:23;;;;;;;12.70;3.33;;;14.00;93.50;;;;;;5061382;28;20032;-75
2022/11/23 09:15:48;;;;;;;12.65;3.10;;;14.00;93.10;;;;;;5062002;28;20025;-75
2022/11/23 09:18:14;;;;;;;9.50;2.92;;;13.70;93.00;;;;;;5059762;28;20021;-76
2022/11/23 09:20:39;;;;;;;12.10;3.15;;;13.90;93.30;;;;;;5066540;28;20516;-77
2022/11/23 09:23:05;;;;;;;13.15;2.92;;;13.60;93.30;;;;;;5065708;28;20025;-76
2022/11/23 09:25:31;;;;;;;14.65;2.50;;;13.40;93.30;;;;;;5057911;28;20380;-75
2022/11/23 09:27:58;;;;;;;14.25;2.97;;;13.30;93.40;;;;;;5054153;28;20497;-75
2022/11/23 09:30:24;;;;;;;12.73;2.78;;;13.20;93.60;;;;;;5053168;28;20032;-75
2022/11/23 09:32:49;;;;;;;11.68;3.20;;;13.20;93.70;;;;;;5054618;28;20025;-74
2022/11/23 09:35:15;;;;;;;12.38;2.90;;;13.30;93.80;;;;;;5052892;28;20032;-76
2022/11/23 09:37:40;;;;;;;10.30;2.15;;;13.20;93.90;;;;;;5069197;28;20106;-77
2022/11/23 09:40:11;;;;;;;11.10;2.72;;;13.20;93.80;;;;;;5062946;28;20043;-75
2022/11/23 09:43:21;;;;;;;6.85;2.22;;;13.20;93.90;;;;;;5052542;28;20028;-76
2022/11/23 09:45:51;;;;;;;11.65;2.35;;;13.20;94.00;;;;;;5054707;28;20029;-77
2022/11/23 09:48:35;;;;;;;11.25;2.55;;;13.10;94.00;;;;;;5053154;28;20024;-78
2022/11/23 09:51:08;;;;;;;9.80;2.55;;;13.10;94.00;;;;;;5068853;28;20051;-78
2022/11/23 09:53:54;;;;;;;8.45;2.20;;;13.10;94.10;;;;;;5060995;28;20028;-75
2022/11/23 09:56:27;;;;;;;7.20;2.08;;;13.10;94.30;;;;;;5055846;28;20025;-77
2022/11/23 09:58:56;;;;;;;10.95;2.45;;;13.10;94.30;;;;;;5061378;28;20020;-86
2022/11/23 10:01:22;;;;;;;10.38;2.17;;;13.00;94.20;;;;;;5072230;28;20028;-80
2022/11/23 10:03:48;;;;;;;10.07;2.05;;;13.10;94.20;;;;;;5072992;28;20025;-73
2022/11/23 10:06:25;;;;;;;10.32;2.80;;;13.00;94.20;;;;;;5064446;28;20024;-74
2022/11/23 10:09:20;;;;;;;11.52;2.63;;;13.00;94.40;;;;;;5061386;28;20021;-73
2022/11/23 10:11:51;;;;;;;13.57;2.78;;;13.00;94.40;;;;;;5069703;28;20024;-74
2022/11/23 10:14:34;;;;;;;9.63;2.67;;;13.00;94.50;;;;;;5071419;28;20037;-74
2022/11/23 10:17:06;;;;;;;8.18;2.70;;;13.00;94.60;;;;;;5055102;28;20028;-74
2022/11/23 10:19:34;;;;;;;8.73;2.65;;;13.00;94.50;;;;;;5060365;28;20489;-73
2022/11/23 10:22:25;;;;;;;8.82;2.67;;;13.00;94.50;;;;;;5065924;28;20405;-74
2022/11/23 10:24:52;;;;;;;7.35;2.10;;;13.00;94.50;;;;;;5073742;28;20115;-74
2022/11/23 10:27:21;;;;;;;11.77;2.60;;;13.00;94.50;;;;;;5072884;28;20564;-73
2022/11/23 10:29:48;;;;;;;9.02;2.70;;;13.10;94.50;;;;;;5063257;28;20091;-74
2022/11/23 10:32:37;;;;;;;13.27;2.97;;;13.10;94.40;;;;;;5073026;28;20016;-73
2022/11/23 10:35:20;;;;;;;12.82;2.63;;;13.20;94.50;;;;;;5052668;28;20025;-77
2022/11/23 10:37:46;;;;;;;10.75;2.28;;;13.20;94.50;;;;;;5071646;28;20057;-77
2022/11/23 10:40:16;;;;;;;9.05;2.35;;;13.30;94.70;;;;;;5060335;28;20083;-76
2022/11/23 10:42:48;;;;;;;8.90;2.33;;;13.30;94.40;;;;;;5060914;28;20029;-76
2022/11/23 10:45:28;;;;;;;9.98;2.33;;;13.30;94.60;;;;;;5067571;28;20465;-76
2022/11/23 10:47:58;;;;;;;9.55;1.55;;;13.30;94.40;;;;;;5070272;28;20036;-76
2022/11/23 10:50:39;;;;;;;7.13;2.00;;;13.30;94.40;;;;;;5062367;28;20029;-76
2022/11/23 10:53:05;;;;;;;16.20;2.50;;;13.30;94.40;;;;;;5056050;28;20365;-77
2022/11/23 10:55:44;;;;;;;8.30;2.25;;;13.30;94.40;;;;;;5055324;28;20033;-75
2022/11/23 10:58:27;;;;;;;9.05;2.17;;;13.30;94.30;;;;;;5063069;28;20023;-77
2022/11/23 11:01:12;;;;;;;7.45;1.95;;;13.40;94.40;;;;;;5065475;28;20032;-78
2022/11/23 11:03:38;;;;;;;8.50;1.70;;;13.40;94.30;;;;;;5076277;28;20120;-78
2022/11/23 11:06:04;;;;;;;5.32;1.70;;;13.40;94.20;;;;;;5071359;28;20111;-77
2022/11/23 11:08:35;;;;;;;8.63;1.65;;;13.30;94.20;;;;;;5060839;28;20111;-77
2022/11/23 11:11:20;;;;;;;8.45;1.77;;;13.40;94.30;;;;;;5061796;28;20075;-77
2022/11/23 11:13:47;;;;;;;9.60;1.83;;;13.40;94.40;;;;;;5060733;28;20044;-76
2022/11/23 11:16:25;;;;;;;9.07;1.80;;;13.40;94.40;;;;;;5054324;28;20405;-78
2022/11/23 11:18:51;;;;;;;6.00;1.95;;;13.50;94.50;;;;;;5059999;28;20027;-77
2022/11/23 11:21:34;;;;;;;5.70;1.58;;;13.50;94.20;;;;;;5063118;28;20040;-77
2022/11/23 11:24:03;;;;;;;8.20;1.50;;;13.40;94.30;;;;;;5066658;28;20079;-75
2022/11/23 11:26:32;;;;;;;7.70;1.63;;;13.40;94.20;;;;;;5058571;28;20025;-75
2022/11/23 11:29:03;;;;;;;8.88;1.85;;;13.50;94.40;;;;;;5060130;28;20082;-74
2022/11/23 11:31:34;;;;;;;8.27;2.05;;;13.50;94.30;;;;;;5068551;28;20021;-73
2022/11/23 11:34:10;;;;;;;17.17;2.88;;;13.50;94.80;;;;;;5063236;28;20021;-76
2022/11/23 11:36:45;;;;;;;11.52;3.03;;;13.60;95.40;;;;;;5060232;28;20079;-75
2022/11/23 11:39:17;;;;;;;15.98;2.50;;;13.70;96.40;;;;;;5058207;28;20048;-73
2022/11/23 11:41:46;;;;;;;10.80;2.63;;;13.70;96.10;;;;;;5054196;28;20045;-73
2022/11/23 11:44:23;;;;;;;16.63;3.35;;;13.70;96.10;;;;;;5055831;28;20090;-73
2022/11/23 11:46:58;;;;;;;13.40;3.08;;;13.80;96.50;;;;;;5064785;28;20025;-75
2022/11/23 11:49:41;;;;;;;13.85;2.30;;;13.90;96.50;;;;;;5059361;28;20017;-73
2022/11/23 11:52:12;;;;;;;14.77;3.60;;;13.90;96.40;;;;;;5067163;28;20524;-72
2022/11/23 11:54:50;;;;;;;17.45;3.03;;;14.00;96.80;;;;;;5060189;28;20424;-74
2022/11/23 11:57:16;;;;;;;14.52;3.13;;;14.00;96.80;;;;;;5058275;28;20078;-77
2022/11/23 11:59:45;;;;;;;10.00;2.28;;;14.10;96.80;;;;;;5068961;28;20036;-75
2022/11/23 12:02:46;;;;;;;13.57;2.20;;;14.00;95.70;;;;;;5059842;28;20025;-75
2022/11/23 12:05:31;;;;;;;10.18;2.00;;;13.90;95.80;;;;;;5057979;28;20033;-72
2022/11/23 12:08:01;;;;;;;10.00;2.13;;;13.90;95.60;;;;;;5060569;28;20297;-75
2022/11/23 12:10:33;;;;;;;6.80;1.92;;;13.90;95.60;;;;;;5054686;28;20280;-73
2022/11/23 12:12:59;;;;;;;7.18;2.15;;;13.90;95.60;;;;;;5070292;28;20048;-77
2022/11/23 12:15:33;;;;;;;10.98;2.28;;;13.90;95.80;;;;;;5061910;28;20020;-76
2022/11/23 12:18:30;;;;;;;12.18;2.60;;;13.90;96.20;;;;;;5057525;28;20416;-73
2022/11/23 12:21:02;;;;;;;10.43;2.00;;;13.90;96.30;;;;;;5055304;28;20049;-75
2022/11/23 12:23:58;;;;;;;12.65;2.47;;;13.90;96.30;;;;;;5060622;28;20024;-71
2022/11/23 12:26:44;;;;;;;8.02;2.08;;;14.00;96.30;;;;;;5064604;28;21809;-72
2022/11/23 12:29:26;;;;;;;9.32;2.22;;;14.10;96.20;;;;;;5059568;28;20478;-72
2022/11/23 12:32:13;;;;;;;10.65;2.33;;;14.20;96.10;;;;;;5069493;28;20064;-70
2022/11/23 12:34:44;;;;;;;8.23;1.88;;;14.20;96.00;;;;;;5053776;28;20067;-74
2022/11/23 12:37:31;;;;;;;11.80;2.40;;;14.20;96.00;;;;;;5059397;28;20029;-74
2022/11/23 12:40:18;;;;;;;6.10;1.85;;;14.20;96.00;;;;;;5055018;28;20040;-72
2022/11/23 12:42:51;;;;;;;14.68;2.00;;;14.30;96.10;;;;;;5063920;28;20085;-75
2022/11/23 12:45:38;;;;;;;5.88;1.42;;;14.40;96.20;;;;;;5072326;28;20016;-70
2022/11/23 12:48:03;;;;;;;8.57;1.60;;;14.50;96.00;;;;;;5063836;28;20089;-72